createdAt,value
2019-06-01T00:01:02.968Z,19.11
2019-06-01T00:03:06.907Z,19.09
2019-06-01T00:05:10.870Z,19.08
2019-06-01T00:07:14.715Z,19.08
2019-06-01T00:09:18.684Z,19.02
2019-06-01T00:11:22.544Z,18.97
2019-06-01T00:13:26.512Z,18.95
2019-06-01T00:15:30.322Z,18.94
2019-06-01T00:17:34.139Z,18.91
2019-06-01T00:19:37.944Z,18.86
2019-06-01T00:21:41.812Z,18.80
2019-06-01T00:23:46.562Z,18.74
2019-06-01T00:25:50.465Z,18.64
2019-06-01T00:27:54.374Z,18.57
2019-06-01T00:29:58.338Z,18.56
2019-06-01T00:32:02.228Z,18.57
2019-06-01T00:34:06.160Z,18.62
2019-06-01T00:36:10.010Z,18.64
2019-06-01T00:38:13.868Z,18.66
2019-06-01T00:40:18.036Z,18.62
2019-06-01T00:42:21.886Z,18.57
2019-06-01T00:44:25.830Z,18.50
2019-06-01T00:46:29.740Z,18.43
2019-06-01T00:48:33.620Z,18.39
2019-06-01T00:50:37.590Z,18.36
2019-06-01T00:52:41.437Z,18.34
2019-06-01T00:54:45.377Z,18.32
2019-06-01T00:56:49.701Z,18.29
2019-06-01T00:58:53.975Z,18.28
2019-06-01T01:00:57.936Z,18.26
2019-06-01T01:03:01.773Z,18.25
2019-06-01T01:05:12.894Z,18.27
2019-06-01T01:07:16.760Z,18.23
2019-06-01T01:09:20.665Z,18.16
2019-06-01T01:11:24.625Z,18.10
2019-06-01T01:13:28.551Z,18.02
2019-06-01T01:15:32.509Z,17.94
2019-06-01T01:17:36.273Z,17.88
2019-06-01T01:19:40.237Z,17.83
2019-06-01T01:21:44.167Z,17.80
2019-06-01T01:23:48.242Z,17.78
2019-06-01T01:25:52.614Z,17.75
2019-06-01T01:27:57.069Z,17.69
2019-06-01T01:30:00.912Z,17.64
2019-06-01T01:32:04.973Z,17.60
2019-06-01T01:34:08.722Z,17.57
2019-06-01T01:36:12.638Z,17.55
2019-06-01T01:38:16.653Z,17.52
2019-06-01T01:40:20.447Z,17.52
2019-06-01T01:42:24.330Z,17.57
2019-06-01T01:44:28.384Z,17.52
2019-06-01T01:46:32.163Z,17.51
2019-06-01T01:48:36.413Z,17.48
2019-06-01T01:50:40.333Z,17.43
2019-06-01T01:52:44.419Z,17.42
2019-06-01T01:54:48.167Z,17.41
2019-06-01T01:56:52.199Z,17.39
2019-06-01T01:59:15.791Z,17.38
2019-06-01T02:01:22.700Z,17.35
2019-06-01T02:03:25.107Z,17.31
2019-06-01T02:05:29.001Z,17.29
2019-06-01T02:07:32.881Z,17.30
2019-06-01T02:09:38.493Z,17.27
2019-06-01T02:11:42.423Z,17.19
2019-06-01T02:13:46.256Z,17.11
2019-06-01T02:15:50.197Z,17.04
2019-06-01T02:17:54.167Z,17.04
2019-06-01T02:19:58.189Z,17.02
2019-06-01T02:22:05.228Z,16.99
2019-06-01T02:24:09.098Z,16.95
2019-06-01T02:26:13.022Z,16.91
2019-06-01T02:28:16.939Z,16.88
2019-06-01T02:30:21.413Z,16.87
2019-06-01T02:32:25.376Z,16.84
2019-06-01T02:34:29.175Z,16.82
2019-06-01T02:36:33.181Z,16.78
2019-06-01T02:38:58.640Z,16.76
2019-06-01T02:41:03.272Z,16.76
2019-06-01T02:43:07.716Z,16.73
2019-06-01T02:45:12.455Z,16.69
2019-06-01T02:47:16.364Z,16.67
2019-06-01T02:49:20.296Z,16.67
2019-06-01T02:51:24.269Z,16.67
2019-06-01T02:53:28.077Z,16.66
2019-06-01T02:55:31.987Z,16.62
2019-06-01T02:57:36.093Z,16.60
2019-06-01T02:59:40.070Z,16.57
2019-06-01T03:01:57.383Z,16.56
2019-06-01T03:03:57.441Z,16.57
2019-06-01T03:06:03.489Z,16.56
2019-06-01T03:08:08.177Z,16.53
2019-06-01T03:10:14.309Z,16.53
2019-06-01T03:12:20.033Z,16.53
2019-06-01T03:14:27.015Z,16.48
2019-06-01T03:16:32.492Z,16.47
2019-06-01T03:18:39.704Z,16.43
2019-06-01T03:20:46.689Z,16.37
2019-06-01T03:22:53.061Z,16.34
2019-06-01T03:24:59.954Z,16.31
2019-06-01T03:27:06.229Z,16.29
2019-06-01T03:29:19.193Z,16.23
2019-06-01T03:31:23.091Z,16.19
2019-06-01T03:33:27.078Z,16.19
2019-06-01T03:35:31.107Z,16.17
2019-06-01T03:37:35.003Z,16.18
2019-06-01T03:39:38.922Z,16.20
2019-06-01T03:41:43.028Z,16.19
2019-06-01T03:43:46.833Z,16.20
2019-06-01T03:45:50.733Z,16.20
2019-06-01T03:47:54.673Z,16.20
2019-06-01T03:49:58.574Z,16.20
2019-06-01T03:52:02.732Z,16.19
2019-06-01T03:54:08.599Z,16.18
2019-06-01T03:56:12.651Z,16.18
2019-06-01T03:58:16.446Z,16.17
2019-06-01T04:00:20.422Z,16.18
2019-06-01T04:02:32.777Z,16.17
2019-06-01T04:04:29.775Z,16.16
2019-06-01T04:06:33.708Z,16.13
2019-06-01T04:08:37.588Z,16.13
2019-06-01T04:10:41.518Z,16.12
2019-06-01T04:12:45.406Z,16.13
2019-06-01T04:14:49.306Z,16.16
2019-06-01T04:16:53.298Z,16.20
2019-06-01T04:18:57.139Z,16.21
2019-06-01T04:21:02.415Z,16.24
2019-06-01T04:23:06.425Z,16.28
2019-06-01T04:25:10.438Z,16.32
2019-06-01T04:27:14.389Z,16.35
2019-06-01T04:29:18.266Z,16.40
2019-06-01T04:31:22.185Z,16.42
2019-06-01T04:33:26.086Z,16.42
2019-06-01T04:35:30.008Z,16.42
2019-06-01T04:37:33.873Z,16.43
2019-06-01T04:39:37.789Z,16.46
2019-06-01T04:41:41.680Z,16.50
2019-06-01T04:43:45.595Z,16.54
2019-06-01T04:45:49.527Z,16.57
2019-06-01T04:47:53.470Z,16.61
2019-06-01T04:49:58.806Z,16.63
2019-06-01T04:52:02.672Z,16.65
2019-06-01T04:54:06.934Z,16.68
2019-06-01T04:56:11.178Z,16.71
2019-06-01T04:58:15.125Z,16.74
2019-06-01T05:00:27.328Z,16.75
2019-06-01T05:02:26.088Z,16.77
2019-06-01T05:04:29.965Z,16.80
2019-06-01T05:06:33.900Z,16.83
2019-06-01T05:08:37.784Z,16.85
2019-06-01T05:10:41.703Z,16.89
2019-06-01T05:12:45.671Z,16.94
2019-06-01T05:14:49.474Z,16.98
2019-06-01T05:16:53.462Z,17.01
2019-06-01T05:18:57.309Z,17.04
2019-06-01T05:21:01.044Z,17.07
2019-06-01T05:23:04.996Z,17.12
2019-06-01T05:25:09.270Z,17.19
2019-06-01T05:27:13.201Z,17.27
2019-06-01T05:29:18.099Z,17.31
2019-06-01T05:31:25.248Z,17.37
2019-06-01T05:33:36.831Z,17.45
2019-06-01T05:35:33.519Z,17.53
2019-06-01T05:37:37.449Z,17.60
2019-06-01T05:39:41.317Z,17.67
2019-06-01T05:41:45.173Z,17.73
2019-06-01T05:43:49.058Z,17.81
2019-06-01T05:45:52.982Z,17.88
2019-06-01T05:47:56.899Z,17.96
2019-06-01T05:50:00.784Z,18.02
2019-06-01T05:52:04.870Z,18.09
2019-06-01T05:54:08.790Z,18.16
2019-06-01T05:56:12.772Z,18.21
2019-06-01T05:58:17.272Z,18.26
2019-06-01T06:00:29.341Z,18.35
2019-06-01T06:02:33.242Z,18.42
2019-06-01T06:04:37.116Z,18.44
2019-06-01T06:06:41.082Z,18.48
2019-06-01T06:08:46.576Z,18.52
2019-06-01T06:10:50.471Z,18.60
2019-06-01T06:12:54.378Z,18.69
2019-06-01T06:14:58.287Z,18.75
2019-06-01T06:17:02.461Z,18.83
2019-06-01T06:19:06.384Z,18.92
2019-06-01T06:21:10.257Z,19.05
2019-06-01T06:23:14.317Z,19.15
2019-06-01T06:25:18.262Z,19.25
2019-06-01T06:27:22.787Z,19.36
2019-06-01T06:29:26.670Z,19.45
2019-06-01T06:31:30.551Z,19.55
2019-06-01T06:33:36.853Z,19.62
2019-06-01T06:35:39.965Z,19.71
2019-06-01T06:37:43.898Z,19.80
2019-06-01T06:39:47.796Z,19.92
2019-06-01T06:41:51.707Z,20.06
2019-06-01T06:43:55.671Z,20.17
2019-06-01T06:45:59.583Z,20.30
2019-06-01T06:48:03.435Z,20.43
2019-06-01T06:50:07.714Z,20.50
2019-06-01T06:52:11.646Z,20.59
2019-06-01T06:54:16.106Z,20.73
2019-06-01T06:56:20.055Z,20.86
2019-06-01T06:58:24.432Z,21.00
2019-06-01T07:00:28.481Z,21.15
2019-06-01T07:02:32.387Z,21.32
2019-06-01T07:04:36.312Z,21.49
2019-06-01T07:06:40.191Z,21.69
2019-06-01T07:08:44.197Z,21.92
2019-06-01T07:10:48.003Z,22.11
2019-06-01T07:12:51.992Z,22.32
2019-06-01T07:14:55.805Z,22.54
2019-06-01T07:17:01.132Z,22.73
2019-06-01T07:19:05.125Z,22.92
2019-06-01T07:21:10.039Z,23.14
2019-06-01T07:23:14.103Z,23.65
2019-06-01T07:25:17.994Z,23.65
2019-06-01T07:27:22.041Z,23.88
2019-06-01T07:29:26.292Z,24.09
2019-06-01T07:31:30.134Z,24.27
2019-06-01T07:33:34.036Z,24.42
2019-06-01T07:35:38.015Z,24.50
2019-06-01T07:37:41.810Z,24.64
2019-06-01T07:39:45.772Z,24.74
2019-06-01T07:41:49.721Z,24.81
2019-06-01T07:43:53.563Z,24.84
2019-06-01T07:45:58.526Z,24.90
2019-06-01T07:48:02.371Z,25.02
2019-06-01T07:50:06.552Z,25.13
2019-06-01T07:52:13.207Z,25.28
2019-06-01T07:54:16.301Z,25.41
2019-06-01T07:56:20.467Z,25.59
2019-06-01T07:58:24.697Z,25.83
2019-06-01T08:00:29.570Z,26.04
2019-06-01T08:02:33.389Z,26.09
2019-06-01T08:04:52.486Z,26.20
2019-06-01T08:06:47.111Z,26.36
2019-06-01T08:08:49.470Z,26.55
2019-06-01T08:10:53.336Z,26.72
2019-06-01T08:12:57.269Z,26.80
2019-06-01T08:15:01.153Z,26.82
2019-06-01T08:17:05.310Z,27.01
2019-06-01T08:19:09.135Z,27.25
2019-06-01T08:21:13.135Z,27.34
2019-06-01T08:23:16.891Z,27.37
2019-06-01T08:25:22.070Z,27.48
2019-06-01T08:27:26.524Z,27.65
2019-06-01T08:29:30.827Z,27.80
2019-06-01T08:31:34.650Z,27.97
2019-06-01T08:33:38.626Z,28.21
2019-06-01T08:35:42.487Z,28.46
2019-06-01T08:37:46.311Z,28.62
2019-06-01T08:39:50.239Z,28.63
2019-06-01T08:41:54.120Z,28.67
2019-06-01T08:43:58.077Z,28.75
2019-06-01T08:46:02.041Z,28.78
2019-06-01T08:48:05.911Z,28.84
2019-06-01T08:50:10.189Z,28.94
2019-06-01T08:52:14.162Z,29.09
2019-06-01T08:54:19.013Z,29.10
2019-06-01T08:56:24.101Z,29.16
2019-06-01T08:58:28.258Z,29.07
2019-06-01T09:00:32.706Z,29.00
2019-06-01T09:02:37.388Z,29.04
2019-06-01T09:04:41.173Z,29.19
2019-06-01T09:06:45.055Z,29.40
2019-06-01T09:08:49.008Z,29.63
2019-06-01T09:10:52.911Z,29.75
2019-06-01T09:12:56.786Z,29.82
2019-06-01T09:15:00.696Z,29.84
2019-06-01T09:17:04.788Z,29.87
2019-06-01T09:19:11.405Z,29.84
2019-06-01T09:21:14.340Z,29.91
2019-06-01T09:23:18.100Z,30.05
2019-06-01T09:25:21.866Z,30.17
2019-06-01T09:27:25.772Z,30.44
2019-06-01T09:29:30.082Z,30.75
2019-06-01T09:31:34.392Z,31.05
2019-06-01T09:33:38.295Z,31.34
2019-06-01T09:35:53.981Z,31.54
2019-06-01T09:37:47.746Z,31.77
2019-06-01T09:39:51.649Z,32.04
2019-06-01T09:41:55.541Z,32.02
2019-06-01T09:43:59.526Z,31.96
2019-06-01T09:46:03.349Z,31.98
2019-06-01T09:48:07.425Z,32.05
2019-06-01T09:50:12.645Z,32.23
2019-06-01T09:52:16.584Z,32.50
2019-06-01T09:54:20.400Z,32.72
2019-06-01T09:56:24.299Z,32.87
2019-06-01T09:58:28.477Z,32.86
2019-06-01T10:00:32.554Z,32.94
2019-06-01T10:02:36.421Z,32.96
2019-06-01T10:04:40.770Z,33.01
2019-06-01T10:06:45.486Z,33.08
2019-06-01T10:08:49.372Z,33.11
2019-06-01T10:10:53.308Z,33.06
2019-06-01T10:12:57.171Z,33.14
2019-06-01T10:15:01.205Z,33.15
2019-06-01T10:17:05.525Z,33.15
2019-06-01T10:19:09.319Z,33.11
2019-06-01T10:21:13.227Z,33.08
2019-06-01T10:23:17.102Z,33.15
2019-06-01T10:25:21.090Z,33.24
2019-06-01T10:27:24.940Z,33.39
2019-06-01T10:29:28.810Z,33.61
2019-06-01T10:31:32.760Z,33.78
2019-06-01T10:33:37.375Z,33.82
2019-06-01T10:35:41.337Z,33.90
2019-06-01T10:37:45.271Z,33.89
2019-06-01T10:39:49.147Z,34.03
2019-06-01T10:41:53.090Z,34.18
2019-06-01T10:43:56.945Z,34.33
2019-06-01T10:46:00.879Z,34.56
2019-06-01T10:48:04.842Z,34.67
2019-06-01T10:50:09.331Z,34.65
2019-06-01T10:52:13.236Z,34.77
2019-06-01T10:54:17.106Z,34.96
2019-06-01T10:56:21.037Z,35.11
2019-06-01T10:58:24.949Z,35.26
2019-06-01T11:00:38.737Z,35.24
2019-06-01T11:02:34.779Z,35.21
2019-06-01T11:04:39.102Z,35.39
2019-06-01T11:06:47.910Z,35.52
2019-06-01T11:08:48.524Z,35.51
2019-06-01T11:10:52.496Z,35.53
2019-06-01T11:12:56.362Z,35.71
2019-06-01T11:15:00.367Z,35.98
2019-06-01T11:17:04.384Z,36.19
2019-06-01T11:19:08.330Z,36.33
2019-06-01T11:21:12.232Z,36.47
2019-06-01T11:23:16.070Z,36.61
2019-06-01T11:25:19.791Z,36.68
2019-06-01T11:27:23.693Z,36.69
2019-06-01T11:29:27.592Z,36.78
2019-06-01T11:31:31.525Z,36.74
2019-06-01T11:33:36.009Z,36.68
2019-06-01T11:35:41.188Z,36.59
2019-06-01T11:37:45.319Z,36.56
2019-06-01T11:39:49.157Z,36.54
2019-06-01T11:41:53.055Z,36.52
2019-06-01T11:43:56.966Z,36.44
2019-06-01T11:46:00.860Z,36.42
2019-06-01T11:48:04.934Z,36.25
2019-06-01T11:50:09.654Z,36.10
2019-06-01T11:52:13.478Z,36.03
2019-06-01T11:54:17.512Z,35.96
2019-06-01T11:56:21.389Z,35.78
2019-06-01T11:58:25.323Z,35.61
2019-06-01T12:00:29.410Z,35.45
2019-06-01T12:02:33.350Z,35.36
2019-06-01T12:04:37.848Z,35.40
2019-06-01T12:06:42.081Z,35.60
2019-06-01T12:08:46.460Z,35.74
2019-06-01T12:10:50.361Z,35.93
2019-06-01T12:12:55.322Z,36.05
2019-06-01T12:14:59.182Z,36.23
2019-06-01T12:17:03.097Z,36.33
2019-06-01T12:19:07.021Z,36.41
2019-06-01T12:21:10.916Z,36.60
2019-06-01T12:23:15.039Z,36.70
2019-06-01T12:25:18.989Z,36.50
2019-06-01T12:27:22.839Z,36.40
2019-06-01T12:29:26.935Z,36.43
2019-06-01T12:31:30.855Z,36.42
2019-06-01T12:33:34.793Z,36.47
2019-06-01T12:35:39.824Z,36.51
2019-06-01T12:38:00.138Z,36.59
2019-06-01T12:39:52.086Z,36.71
2019-06-01T12:41:54.889Z,36.86
2019-06-01T12:44:17.250Z,36.87
2019-06-01T12:46:21.110Z,37.00
2019-06-01T12:48:25.008Z,37.37
2019-06-01T12:50:29.071Z,37.82
2019-06-01T12:52:32.898Z,38.21
2019-06-01T12:54:36.779Z,38.52
2019-06-01T12:56:40.859Z,39.01
2019-06-01T12:58:45.978Z,39.63
2019-06-01T13:00:50.014Z,40.33
2019-06-01T13:03:06.046Z,41.21
2019-06-01T13:04:59.302Z,42.04
2019-06-01T13:07:03.274Z,42.73
2019-06-01T13:09:08.587Z,43.16
2019-06-01T13:11:12.494Z,43.36
2019-06-01T13:13:16.433Z,43.39
2019-06-01T13:15:20.513Z,43.23
2019-06-01T13:17:24.388Z,42.78
2019-06-01T13:19:28.370Z,41.98
2019-06-01T13:21:32.252Z,41.03
2019-06-01T13:23:36.096Z,40.13
2019-06-01T13:25:41.406Z,39.26
2019-06-01T13:27:46.427Z,38.40
2019-06-01T13:29:50.473Z,37.67
2019-06-01T13:31:54.383Z,37.18
2019-06-01T13:33:58.281Z,36.75
2019-06-01T13:36:02.220Z,36.37
2019-06-01T13:38:12.286Z,36.10
2019-06-01T13:40:11.693Z,35.86
2019-06-01T13:42:15.544Z,35.58
2019-06-01T13:44:19.514Z,35.24
2019-06-01T13:46:23.339Z,34.97
2019-06-01T13:48:27.276Z,34.70
2019-06-01T13:50:31.161Z,34.47
2019-06-01T13:52:35.058Z,34.29
2019-06-01T13:54:40.232Z,34.07
2019-06-01T13:56:44.754Z,33.88
2019-06-01T13:58:48.617Z,33.71
2019-06-01T14:00:53.225Z,33.52
2019-06-01T14:02:58.150Z,33.40
2019-06-01T14:05:02.047Z,33.35
2019-06-01T14:07:06.057Z,33.35
2019-06-01T14:09:09.780Z,33.42
2019-06-01T14:11:13.700Z,33.49
2019-06-01T14:13:17.747Z,33.50
2019-06-01T14:15:21.548Z,33.53
2019-06-01T14:17:25.415Z,33.55
2019-06-01T14:19:29.300Z,33.57
2019-06-01T14:21:33.201Z,33.57
2019-06-01T14:23:37.210Z,33.50
2019-06-01T14:25:41.088Z,33.40
2019-06-01T14:27:46.060Z,33.29
2019-06-01T14:29:50.301Z,33.20
2019-06-01T14:31:57.387Z,33.19
2019-06-01T14:34:01.342Z,33.22
2019-06-01T14:36:05.447Z,33.23
2019-06-01T14:38:09.370Z,33.16
2019-06-01T14:40:13.697Z,33.07
2019-06-01T14:42:17.556Z,33.01
2019-06-01T14:44:21.457Z,33.01
2019-06-01T14:46:25.377Z,32.93
2019-06-01T14:48:29.273Z,32.78
2019-06-01T14:50:33.281Z,32.63
2019-06-01T14:52:37.226Z,32.53
2019-06-01T14:54:41.089Z,32.44
2019-06-01T14:56:44.956Z,32.39
2019-06-01T14:58:49.900Z,32.35
2019-06-01T15:00:54.571Z,32.35
2019-06-01T15:02:58.543Z,32.31
2019-06-01T15:05:02.428Z,32.28
2019-06-01T15:07:06.256Z,32.24
2019-06-01T15:09:18.331Z,32.20
2019-06-01T15:11:16.085Z,32.22
2019-06-01T15:13:20.053Z,32.28
2019-06-01T15:15:24.178Z,32.29
2019-06-01T15:17:28.064Z,32.26
2019-06-01T15:19:31.954Z,32.22
2019-06-01T15:21:37.188Z,32.18
2019-06-01T15:23:40.975Z,32.16
2019-06-01T15:25:44.951Z,32.12
2019-06-01T15:27:48.673Z,32.11
2019-06-01T15:29:52.734Z,32.08
2019-06-01T15:31:57.952Z,32.04
2019-06-01T15:34:01.958Z,32.00
2019-06-01T15:36:05.913Z,32.01
2019-06-01T15:38:09.882Z,32.02
2019-06-01T15:40:14.474Z,31.99
2019-06-01T15:42:18.348Z,31.95
2019-06-01T15:44:22.320Z,31.91
2019-06-01T15:46:26.207Z,31.87
2019-06-01T15:48:30.074Z,31.81
2019-06-01T15:50:34.020Z,31.77
2019-06-01T15:52:37.991Z,31.74
2019-06-01T15:54:41.832Z,31.68
2019-06-01T15:56:45.780Z,31.64
2019-06-01T15:58:53.564Z,31.61
2019-06-01T16:00:56.696Z,31.58
2019-06-01T16:03:01.185Z,31.58
2019-06-01T16:05:05.708Z,31.60
2019-06-01T16:07:09.517Z,31.59
2019-06-01T16:09:13.434Z,31.57
2019-06-01T16:11:17.359Z,31.57
2019-06-01T16:13:21.412Z,31.58
2019-06-01T16:15:25.392Z,31.56
2019-06-01T16:17:29.258Z,31.47
2019-06-01T16:19:33.195Z,31.39
2019-06-01T16:21:37.051Z,31.34
2019-06-01T16:23:49.863Z,31.30
2019-06-01T16:25:57.400Z,31.21
2019-06-01T16:27:52.268Z,31.15
2019-06-01T16:29:56.856Z,31.09
2019-06-01T16:32:00.821Z,31.06
2019-06-01T16:34:05.278Z,31.03
2019-06-01T16:36:09.082Z,31.01
2019-06-01T16:38:13.070Z,30.95
2019-06-01T16:40:17.827Z,30.89
2019-06-01T16:42:21.647Z,30.78
2019-06-01T16:44:26.453Z,30.72
2019-06-01T16:46:30.245Z,30.67
2019-06-01T16:48:34.164Z,30.62
2019-06-01T16:50:38.208Z,30.58
2019-06-01T16:52:42.024Z,30.55
2019-06-01T16:54:45.946Z,30.49
2019-06-01T16:56:50.124Z,30.47
2019-06-01T16:58:53.901Z,30.46
2019-06-01T17:00:58.552Z,30.45
2019-06-01T17:03:02.706Z,30.44
2019-06-01T17:05:07.505Z,30.44
2019-06-01T17:07:11.378Z,30.45
2019-06-01T17:09:15.255Z,30.46
2019-06-01T17:11:19.204Z,30.44
2019-06-01T17:13:23.123Z,30.44
2019-06-01T17:15:27.043Z,30.44
2019-06-01T17:17:30.936Z,30.42
2019-06-01T17:19:34.849Z,30.43
2019-06-01T17:21:38.736Z,30.43
2019-06-01T17:23:42.598Z,30.42
2019-06-01T17:25:46.613Z,30.43
2019-06-01T17:27:50.472Z,30.42
2019-06-01T17:29:54.295Z,30.41
2019-06-01T17:32:14.303Z,30.38
2019-06-01T17:34:04.655Z,30.37
2019-06-01T17:36:08.935Z,30.35
2019-06-01T17:38:12.963Z,30.31
2019-06-01T17:40:16.840Z,30.29
2019-06-01T17:42:20.608Z,30.25
2019-06-01T17:44:24.493Z,30.25
2019-06-01T17:46:28.546Z,30.23
2019-06-01T17:48:33.611Z,30.19
2019-06-01T17:50:37.513Z,30.16
2019-06-01T17:52:41.429Z,30.12
2019-06-01T17:54:45.276Z,30.12
2019-06-01T17:56:49.234Z,30.10
2019-06-01T17:58:53.337Z,30.05
2019-06-01T18:00:57.256Z,30.01
2019-06-01T18:03:01.608Z,29.99
2019-06-01T18:05:05.888Z,29.96
2019-06-01T18:07:10.046Z,29.93
2019-06-01T18:09:13.944Z,29.89
2019-06-01T18:11:17.911Z,29.80
2019-06-01T18:13:22.002Z,29.68
2019-06-01T18:15:26.219Z,29.55
2019-06-01T18:17:30.063Z,29.47
2019-06-01T18:19:34.018Z,29.46
2019-06-01T18:21:38.060Z,29.45
2019-06-01T18:23:41.967Z,29.44
2019-06-01T18:25:45.992Z,29.42
2019-06-01T18:27:49.948Z,29.39
2019-06-01T18:29:53.747Z,29.32
2019-06-01T18:31:57.761Z,29.25
2019-06-01T18:34:03.079Z,29.17
2019-06-01T18:36:08.175Z,29.09
2019-06-01T18:38:14.862Z,29.03
2019-06-01T18:40:22.234Z,28.98
2019-06-01T18:42:29.168Z,28.90
2019-06-01T18:44:33.158Z,28.82
2019-06-01T18:46:37.057Z,28.77
2019-06-01T18:48:41.022Z,28.70
2019-06-01T18:50:44.868Z,28.66
2019-06-01T18:52:48.860Z,28.62
2019-06-01T18:54:52.749Z,28.54
2019-06-01T18:57:09.797Z,28.50
2019-06-01T18:59:02.191Z,28.46
2019-06-01T19:01:06.427Z,28.41
2019-06-01T19:03:11.630Z,28.37
2019-06-01T19:05:16.094Z,28.32
2019-06-01T19:07:19.961Z,28.26
2019-06-01T19:09:23.871Z,28.22
2019-06-01T19:11:35.708Z,28.18
2019-06-01T19:13:33.286Z,28.10
2019-06-01T19:15:38.229Z,28.06
2019-06-01T19:17:42.378Z,27.97
2019-06-01T19:19:46.246Z,27.82
2019-06-01T19:21:50.141Z,27.71
2019-06-01T19:23:54.128Z,27.56
2019-06-01T19:25:57.935Z,27.45
2019-06-01T19:28:01.855Z,27.31
2019-06-01T19:30:06.974Z,27.17
2019-06-01T19:32:12.837Z,26.99
2019-06-01T19:34:18.010Z,26.83
2019-06-01T19:36:22.209Z,26.70
2019-06-01T19:38:28.176Z,26.63
2019-06-01T19:40:39.694Z,26.56
2019-06-01T19:42:43.523Z,26.53
2019-06-01T19:44:47.514Z,26.50
2019-06-01T19:46:51.326Z,26.47
2019-06-01T19:48:55.256Z,26.47
2019-06-01T19:50:59.131Z,26.51
2019-06-01T19:53:03.057Z,26.51
2019-06-01T19:55:08.785Z,26.51
2019-06-01T19:57:17.963Z,26.52
2019-06-01T19:59:18.357Z,26.52
2019-06-01T20:01:22.665Z,26.48
2019-06-01T20:03:26.676Z,26.34
2019-06-01T20:05:30.566Z,26.17
2019-06-01T20:07:34.553Z,26.00
2019-06-01T20:09:38.537Z,25.92
2019-06-01T20:11:42.558Z,25.86
2019-06-01T20:13:46.407Z,25.85
2019-06-01T20:15:50.460Z,25.81
2019-06-01T20:17:54.423Z,25.76
2019-06-01T20:19:58.309Z,25.70
2019-06-01T20:22:02.182Z,25.61
2019-06-01T20:24:06.211Z,25.48
2019-06-01T20:26:11.237Z,25.32
2019-06-01T20:28:15.624Z,25.16
2019-06-01T20:30:22.187Z,25.04
2019-06-01T20:32:26.290Z,24.94
2019-06-01T20:34:30.150Z,24.88
2019-06-01T20:36:34.052Z,24.78
2019-06-01T20:38:37.957Z,24.67
2019-06-01T20:40:41.848Z,24.59
2019-06-01T20:42:45.831Z,24.51
2019-06-01T20:44:49.644Z,24.41
2019-06-01T20:46:53.574Z,24.33
2019-06-01T20:48:57.454Z,24.27
2019-06-01T20:51:01.372Z,24.24
2019-06-01T20:53:05.438Z,24.26
2019-06-01T20:55:09.815Z,24.31
2019-06-01T20:57:13.769Z,24.36
2019-06-01T20:59:21.022Z,24.40
2019-06-01T21:01:23.956Z,24.43
2019-06-01T21:03:27.982Z,24.44
2019-06-01T21:05:31.756Z,24.42
2019-06-01T21:07:35.735Z,24.37
2019-06-01T21:09:39.655Z,24.33
2019-06-01T21:11:43.571Z,24.25
2019-06-01T21:13:47.385Z,24.19
2019-06-01T21:15:51.357Z,24.16
2019-06-01T21:17:55.260Z,24.09
2019-06-01T21:20:04.138Z,24.01
2019-06-01T21:22:04.910Z,23.91
2019-06-01T21:24:08.782Z,23.79
2019-06-01T21:26:12.652Z,23.68
2019-06-01T21:28:18.169Z,23.62
2019-06-01T21:30:23.021Z,23.60
2019-06-01T21:32:28.083Z,23.59
2019-06-01T21:34:31.979Z,23.61
2019-06-01T21:36:35.889Z,23.64
2019-06-01T21:38:39.818Z,23.69
2019-06-01T21:40:43.667Z,23.74
2019-06-01T21:43:02.708Z,23.74
2019-06-01T21:44:53.226Z,23.69
2019-06-01T21:46:57.101Z,23.58
2019-06-01T21:49:00.943Z,23.50
2019-06-01T21:51:04.999Z,23.48
2019-06-01T21:53:08.989Z,23.52
2019-06-01T21:55:12.955Z,23.56
2019-06-01T21:57:16.769Z,23.58
2019-06-01T21:59:20.715Z,23.56
2019-06-01T22:01:24.921Z,23.50
2019-06-01T22:03:29.059Z,23.46
2019-06-01T22:05:32.993Z,23.48
2019-06-01T22:07:36.871Z,23.49
2019-06-01T22:09:40.904Z,23.49
2019-06-01T22:11:44.723Z,23.42
2019-06-01T22:13:48.610Z,23.34
2019-06-01T22:15:52.528Z,23.21
2019-06-01T22:17:56.421Z,23.10
2019-06-01T22:20:00.334Z,23.02
2019-06-01T22:22:04.413Z,22.96
2019-06-01T22:24:08.330Z,22.93
2019-06-01T22:26:12.223Z,22.89
2019-06-01T22:28:18.633Z,22.87
2019-06-01T22:30:22.763Z,22.86
2019-06-01T22:32:30.007Z,22.85
2019-06-01T22:34:32.169Z,22.80
2019-06-01T22:36:36.135Z,22.75
2019-06-01T22:38:40.053Z,22.74
2019-06-01T22:40:43.867Z,22.76
2019-06-01T22:42:47.755Z,22.80
2019-06-01T22:44:51.678Z,22.80
2019-06-01T22:46:55.579Z,22.79
2019-06-01T22:48:59.489Z,22.78
2019-06-01T22:51:03.465Z,22.75
2019-06-01T22:53:07.334Z,22.73
2019-06-01T22:55:11.470Z,22.70
2019-06-01T22:57:15.294Z,22.63
2019-06-01T22:59:20.461Z,22.47
2019-06-01T23:01:24.723Z,22.36
2019-06-01T23:03:30.038Z,22.25
2019-06-01T23:05:34.203Z,22.19
2019-06-01T23:07:38.104Z,22.17
2019-06-01T23:09:42.381Z,22.16
2019-06-01T23:11:46.333Z,22.11
2019-06-01T23:13:53.655Z,22.06
2019-06-01T23:15:55.866Z,22.05
2019-06-01T23:17:59.749Z,22.03
2019-06-01T23:20:04.235Z,22.04
2019-06-01T23:22:08.089Z,22.00
2019-06-01T23:24:11.985Z,21.92
2019-06-01T23:26:16.007Z,21.86
2019-06-01T23:28:19.798Z,21.79
2019-06-01T23:30:24.262Z,21.75
2019-06-01T23:32:28.596Z,21.72
2019-06-01T23:34:32.815Z,21.64
2019-06-01T23:36:37.028Z,21.63
2019-06-01T23:38:40.957Z,21.55
2019-06-01T23:40:44.926Z,21.50
2019-06-01T23:42:48.788Z,21.50
2019-06-01T23:44:52.690Z,21.51
2019-06-01T23:46:56.691Z,21.54
2019-06-01T23:49:00.481Z,21.58
2019-06-01T23:51:04.600Z,21.60
2019-06-01T23:53:13.533Z,21.60
2019-06-01T23:55:14.402Z,21.53
2019-06-01T23:57:18.158Z,21.47
2019-06-01T23:59:22.068Z,21.45
